sensor_id;sensor_type;location;lat;lon;timestamp;P1;durP1;ratioP1;P2;durP2;ratioP2
9767;SDS011;4923;52.520;13.494;2023-03-09T00:01:35;9.60;;;6.25;;
9767;SDS011;4923;52.520;13.494;2023-03-09T00:04:22;9.18;;;7.30;;
9767;SDS011;4923;52.520;13.494;2023-03-09T00:07:09;10.90;;;7.03;;
9767;SDS011;4923;52.520;13.494;2023-03-09T00:09:56;10.48;;;7.47;;
9767;SDS011;4923;52.520;13.494;2023-03-09T00:12:43;11.27;;;7.60;;
9767;SDS011;4923;52.520;13.494;2023-03-09T00:15:31;8.02;;;6.85;;
9767;SDS011;4923;52.520;13.494;2023-03-09T00:18:19;9.48;;;7.38;;
9767;SDS011;4923;52.520;13.494;2023-03-09T00:21:07;10.38;;;8.18;;
9767;SDS011;4923;52.520;13.494;2023-03-09T00:24:16;12.68;;;8.50;;
9767;SDS011;4923;52.520;13.494;2023-03-09T00:27:04;9.13;;;8.02;;
9767;SDS011;4923;52.520;13.494;2023-03-09T00:29:50;12.38;;;8.30;;
9767;SDS011;4923;52.520;13.494;2023-03-09T00:32:39;14.40;;;7.93;;
9767;SDS011;4923;52.520;13.494;2023-03-09T00:35:25;12.45;;;8.25;;
9767;SDS011;4923;52.520;13.494;2023-03-09T00:38:12;9.35;;;7.40;;
9767;SDS011;4923;52.520;13.494;2023-03-09T00:41:02;11.40;;;7.70;;
9767;SDS011;4923;52.520;13.494;2023-03-09T00:43:49;9.60;;;8.07;;
9767;SDS011;4923;52.520;13.494;2023-03-09T00:46:36;9.90;;;7.90;;
9767;SDS011;4923;52.520;13.494;2023-03-09T00:49:24;10.75;;;7.75;;
9767;SDS011;4923;52.520;13.494;2023-03-09T00:52:11;13.40;;;8.60;;
9767;SDS011;4923;52.520;13.494;2023-03-09T00:54:58;12.27;;;8.45;;
9767;SDS011;4923;52.520;13.494;2023-03-09T00:57:45;12.57;;;8.82;;
9767;SDS011;4923;52.520;13.494;2023-03-09T01:00:32;10.73;;;8.45;;
9767;SDS011;4923;52.520;13.494;2023-03-09T01:03:19;11.25;;;8.27;;
9767;SDS011;4923;52.520;13.494;2023-03-09T01:06:08;10.48;;;8.55;;
9767;SDS011;4923;52.520;13.494;2023-03-09T01:08:55;14.63;;;8.70;;
9767;SDS011;4923;52.520;13.494;2023-03-09T01:11:42;10.98;;;8.60;;
9767;SDS011;4923;52.520;13.494;2023-03-09T01:14:29;11.20;;;8.95;;
9767;SDS011;4923;52.520;13.494;2023-03-09T01:17:16;13.90;;;9.07;;
9767;SDS011;4923;52.520;13.494;2023-03-09T01:20:03;14.25;;;8.73;;
9767;SDS011;4923;52.520;13.494;2023-03-09T01:22:52;12.95;;;8.88;;
9767;SDS011;4923;52.520;13.494;2023-03-09T01:25:39;11.50;;;8.60;;
9767;SDS011;4923;52.520;13.494;2023-03-09T01:28:26;11.23;;;8.55;;
9767;SDS011;4923;52.520;13.494;2023-03-09T01:31:13;11.77;;;8.82;;
9767;SDS011;4923;52.520;13.494;2023-03-09T01:34:01;14.13;;;9.10;;
9767;SDS011;4923;52.520;13.494;2023-03-09T01:36:48;16.00;;;9.50;;
9767;SDS011;4923;52.520;13.494;2023-03-09T01:39:36;14.20;;;8.45;;
9767;SDS011;4923;52.520;13.494;2023-03-09T01:42:23;12.45;;;9.30;;
9767;SDS011;4923;52.520;13.494;2023-03-09T01:48:30;15.00;;;9.00;;
9767;SDS011;4923;52.520;13.494;2023-03-09T01:51:17;12.80;;;8.52;;
9767;SDS011;4923;52.520;13.494;2023-03-09T01:54:06;14.38;;;9.63;;
9767;SDS011;4923;52.520;13.494;2023-03-09T01:56:59;14.07;;;9.43;;
9767;SDS011;4923;52.520;13.494;2023-03-09T01:59:48;12.15;;;9.27;;
9767;SDS011;4923;52.520;13.494;2023-03-09T02:02:38;18.98;;;9.50;;
9767;SDS011;4923;52.520;13.494;2023-03-09T02:05:28;15.10;;;9.65;;
9767;SDS011;4923;52.520;13.494;2023-03-09T02:08:21;14.13;;;10.27;;
9767;SDS011;4923;52.520;13.494;2023-03-09T02:11:09;12.25;;;8.70;;
9767;SDS011;4923;52.520;13.494;2023-03-09T02:14:00;15.10;;;9.18;;
9767;SDS011;4923;52.520;13.494;2023-03-09T02:16:47;16.92;;;11.02;;
9767;SDS011;4923;52.520;13.494;2023-03-09T02:19:36;14.77;;;9.00;;
9767;SDS011;4923;52.520;13.494;2023-03-09T02:22:29;18.27;;;10.38;;
9767;SDS011;4923;52.520;13.494;2023-03-09T02:25:18;16.20;;;11.05;;
9767;SDS011;4923;52.520;13.494;2023-03-09T02:28:11;17.63;;;10.25;;
9767;SDS011;4923;52.520;13.494;2023-03-09T02:30:58;15.55;;;9.45;;
9767;SDS011;4923;52.520;13.494;2023-03-09T02:33:45;16.33;;;10.52;;
9767;SDS011;4923;52.520;13.494;2023-03-09T02:36:32;15.52;;;10.77;;
9767;SDS011;4923;52.520;13.494;2023-03-09T02:39:21;17.70;;;10.38;;
9767;SDS011;4923;52.520;13.494;2023-03-09T02:42:17;16.13;;;10.38;;
9767;SDS011;4923;52.520;13.494;2023-03-09T02:45:07;19.48;;;10.80;;
9767;SDS011;4923;52.520;13.494;2023-03-09T02:47:56;14.27;;;10.15;;
9767;SDS011;4923;52.520;13.494;2023-03-09T02:50:43;16.55;;;10.23;;
9767;SDS011;4923;52.520;13.494;2023-03-09T02:53:30;18.88;;;10.32;;
9767;SDS011;4923;52.520;13.494;2023-03-09T02:56:17;18.05;;;11.02;;
9767;SDS011;4923;52.520;13.494;2023-03-09T02:59:04;19.40;;;9.60;;
9767;SDS011;4923;52.520;13.494;2023-03-09T03:01:52;17.63;;;10.55;;
9767;SDS011;4923;52.520;13.494;2023-03-09T03:04:39;15.38;;;9.95;;
9767;SDS011;4923;52.520;13.494;2023-03-09T03:07:26;13.23;;;8.45;;
9767;SDS011;4923;52.520;13.494;2023-03-09T03:10:14;16.73;;;9.65;;
9767;SDS011;4923;52.520;13.494;2023-03-09T03:13:01;18.98;;;10.50;;
9767;SDS011;4923;52.520;13.494;2023-03-09T03:15:48;15.73;;;9.35;;
9767;SDS011;4923;52.520;13.494;2023-03-09T03:18:36;17.98;;;10.15;;
9767;SDS011;4923;52.520;13.494;2023-03-09T03:21:23;15.40;;;9.30;;
9767;SDS011;4923;52.520;13.494;2023-03-09T03:24:10;16.13;;;9.85;;
9767;SDS011;4923;52.520;13.494;2023-03-09T03:26:57;19.38;;;9.43;;
9767;SDS011;4923;52.520;13.494;2023-03-09T03:29:44;15.93;;;10.00;;
9767;SDS011;4923;52.520;13.494;2023-03-09T03:32:31;15.70;;;9.50;;
9767;SDS011;4923;52.520;13.494;2023-03-09T03:35:19;17.38;;;9.05;;
9767;SDS011;4923;52.520;13.494;2023-03-09T03:38:06;13.70;;;8.88;;
9767;SDS011;4923;52.520;13.494;2023-03-09T03:40:53;18.10;;;10.75;;
9767;SDS011;4923;52.520;13.494;2023-03-09T03:43:40;13.20;;;9.57;;
9767;SDS011;4923;52.520;13.494;2023-03-09T03:46:27;14.52;;;9.38;;
9767;SDS011;4923;52.520;13.494;2023-03-09T03:49:15;15.20;;;9.75;;
9767;SDS011;4923;52.520;13.494;2023-03-09T03:52:04;21.38;;;9.30;;
9767;SDS011;4923;52.520;13.494;2023-03-09T03:54:51;16.80;;;9.18;;
9767;SDS011;4923;52.520;13.494;2023-03-09T03:57:38;15.68;;;9.50;;
9767;SDS011;4923;52.520;13.494;2023-03-09T04:00:25;14.48;;;9.40;;
9767;SDS011;4923;52.520;13.494;2023-03-09T04:03:12;16.50;;;10.15;;
9767;SDS011;4923;52.520;13.494;2023-03-09T04:05:59;18.80;;;9.98;;
9767;SDS011;4923;52.520;13.494;2023-03-09T04:08:48;20.60;;;10.18;;
9767;SDS011;4923;52.520;13.494;2023-03-09T04:11:35;18.95;;;10.38;;
9767;SDS011;4923;52.520;13.494;2023-03-09T04:14:22;19.45;;;10.20;;
9767;SDS011;4923;52.520;13.494;2023-03-09T04:17:09;17.95;;;10.88;;
9767;SDS011;4923;52.520;13.494;2023-03-09T04:19:56;16.60;;;10.00;;
9767;SDS011;4923;52.520;13.494;2023-03-09T04:22:43;15.63;;;11.07;;
9767;SDS011;4923;52.520;13.494;2023-03-09T04:25:31;18.17;;;11.13;;
9767;SDS011;4923;52.520;13.494;2023-03-09T04:28:18;18.00;;;10.82;;
9767;SDS011;4923;52.520;13.494;2023-03-09T04:31:04;18.35;;;12.27;;
9767;SDS011;4923;52.520;13.494;2023-03-09T04:33:51;18.83;;;11.77;;
9767;SDS011;4923;52.520;13.494;2023-03-09T04:36:38;19.35;;;11.95;;
9767;SDS011;4923;52.520;13.494;2023-03-09T04:39:25;20.30;;;12.02;;
9767;SDS011;4923;52.520;13.494;2023-03-09T04:42:13;19.75;;;12.70;;
9767;SDS011;4923;52.520;13.494;2023-03-09T04:45:00;17.23;;;11.90;;
9767;SDS011;4923;52.520;13.494;2023-03-09T04:47:48;16.63;;;11.35;;
9767;SDS011;4923;52.520;13.494;2023-03-09T04:50:35;21.10;;;13.07;;
9767;SDS011;4923;52.520;13.494;2023-03-09T04:53:22;21.48;;;13.55;;
9767;SDS011;4923;52.520;13.494;2023-03-09T04:56:08;19.13;;;12.05;;
9767;SDS011;4923;52.520;13.494;2023-03-09T04:58:57;22.35;;;13.32;;
9767;SDS011;4923;52.520;13.494;2023-03-09T05:01:44;23.50;;;13.68;;
9767;SDS011;4923;52.520;13.494;2023-03-09T05:04:30;19.80;;;12.38;;
9767;SDS011;4923;52.520;13.494;2023-03-09T05:07:18;20.30;;;12.13;;
9767;SDS011;4923;52.520;13.494;2023-03-09T05:10:05;18.55;;;12.05;;
9767;SDS011;4923;52.520;13.494;2023-03-09T05:12:53;22.85;;;12.85;;
9767;SDS011;4923;52.520;13.494;2023-03-09T05:15:41;20.48;;;12.95;;
9767;SDS011;4923;52.520;13.494;2023-03-09T05:18:28;20.55;;;12.80;;
9767;SDS011;4923;52.520;13.494;2023-03-09T05:21:15;22.13;;;13.35;;
9767;SDS011;4923;52.520;13.494;2023-03-09T05:24:02;20.50;;;12.25;;
9767;SDS011;4923;52.520;13.494;2023-03-09T05:26:50;23.65;;;12.88;;
9767;SDS011;4923;52.520;13.494;2023-03-09T05:29:36;20.80;;;13.77;;
9767;SDS011;4923;52.520;13.494;2023-03-09T05:32:25;16.17;;;10.60;;
9767;SDS011;4923;52.520;13.494;2023-03-09T05:35:11;19.88;;;12.70;;
9767;SDS011;4923;52.520;13.494;2023-03-09T05:37:59;23.65;;;12.00;;
9767;SDS011;4923;52.520;13.494;2023-03-09T05:40:45;23.98;;;12.50;;
9767;SDS011;4923;52.520;13.494;2023-03-09T05:43:32;19.63;;;12.88;;
9767;SDS011;4923;52.520;13.494;2023-03-09T05:46:21;17.73;;;10.73;;
9767;SDS011;4923;52.520;13.494;2023-03-09T05:49:10;18.20;;;11.48;;
9767;SDS011;4923;52.520;13.494;2023-03-09T05:51:57;16.45;;;10.90;;
9767;SDS011;4923;52.520;13.494;2023-03-09T05:54:44;20.67;;;12.63;;
9767;SDS011;4923;52.520;13.494;2023-03-09T05:57:31;19.48;;;12.90;;
9767;SDS011;4923;52.520;13.494;2023-03-09T06:00:18;23.50;;;12.55;;
9767;SDS011;4923;52.520;13.494;2023-03-09T06:03:05;21.45;;;12.88;;
9767;SDS011;4923;52.520;13.494;2023-03-09T06:05:58;17.67;;;11.20;;
9767;SDS011;4923;52.520;13.494;2023-03-09T06:08:46;17.05;;;10.98;;
9767;SDS011;4923;52.520;13.494;2023-03-09T06:11:32;17.23;;;11.73;;
9767;SDS011;4923;52.520;13.494;2023-03-09T06:14:19;17.38;;;12.07;;
9767;SDS011;4923;52.520;13.494;2023-03-09T06:17:06;20.45;;;12.18;;
9767;SDS011;4923;52.520;13.494;2023-03-09T06:19:53;18.35;;;11.52;;
9767;SDS011;4923;52.520;13.494;2023-03-09T06:22:41;18.38;;;12.30;;
9767;SDS011;4923;52.520;13.494;2023-03-09T06:25:30;17.10;;;10.65;;
9767;SDS011;4923;52.520;13.494;2023-03-09T06:28:17;15.45;;;10.32;;
9767;SDS011;4923;52.520;13.494;2023-03-09T06:31:04;21.90;;;12.30;;
9767;SDS011;4923;52.520;13.494;2023-03-09T06:33:53;17.23;;;10.57;;
9767;SDS011;4923;52.520;13.494;2023-03-09T06:36:40;16.27;;;10.00;;
9767;SDS011;4923;52.520;13.494;2023-03-09T06:39:28;13.00;;;10.20;;
9767;SDS011;4923;52.520;13.494;2023-03-09T06:42:15;13.35;;;10.70;;
9767;SDS011;4923;52.520;13.494;2023-03-09T06:45:02;14.57;;;10.13;;
9767;SDS011;4923;52.520;13.494;2023-03-09T06:47:52;17.38;;;11.05;;
9767;SDS011;4923;52.520;13.494;2023-03-09T06:50:39;15.15;;;10.60;;
9767;SDS011;4923;52.520;13.494;2023-03-09T06:53:27;14.13;;;10.02;;
9767;SDS011;4923;52.520;13.494;2023-03-09T06:56:15;13.20;;;9.63;;
9767;SDS011;4923;52.520;13.494;2023-03-09T06:59:02;12.55;;;8.98;;
9767;SDS011;4923;52.520;13.494;2023-03-09T07:01:49;15.00;;;10.05;;
9767;SDS011;4923;52.520;13.494;2023-03-09T07:04:35;15.50;;;10.38;;
9767;SDS011;4923;52.520;13.494;2023-03-09T07:07:22;12.52;;;9.68;;
9767;SDS011;4923;52.520;13.494;2023-03-09T07:10:10;15.40;;;8.88;;
9767;SDS011;4923;52.520;13.494;2023-03-09T07:12:59;10.10;;;8.10;;
9767;SDS011;4923;52.520;13.494;2023-03-09T07:15:46;11.55;;;8.57;;
9767;SDS011;4923;52.520;13.494;2023-03-09T07:18:33;12.25;;;9.20;;
9767;SDS011;4923;52.520;13.494;2023-03-09T07:21:20;13.65;;;9.73;;
9767;SDS011;4923;52.520;13.494;2023-03-09T07:24:07;8.85;;;7.72;;
9767;SDS011;4923;52.520;13.494;2023-03-09T07:26:54;11.25;;;8.55;;
9767;SDS011;4923;52.520;13.494;2023-03-09T07:29:42;11.88;;;8.60;;
9767;SDS011;4923;52.520;13.494;2023-03-09T07:32:29;8.50;;;7.45;;
9767;SDS011;4923;52.520;13.494;2023-03-09T07:35:16;8.00;;;7.20;;
9767;SDS011;4923;52.520;13.494;2023-03-09T07:38:03;11.77;;;7.47;;
9767;SDS011;4923;52.520;13.494;2023-03-09T07:40:50;12.10;;;8.40;;
9767;SDS011;4923;52.520;13.494;2023-03-09T07:43:37;7.93;;;7.05;;
9767;SDS011;4923;52.520;13.494;2023-03-09T07:46:30;9.88;;;7.72;;
9767;SDS011;4923;52.520;13.494;2023-03-09T07:49:17;9.68;;;8.25;;
9767;SDS011;4923;52.520;13.494;2023-03-09T07:52:04;9.73;;;8.60;;
9767;SDS011;4923;52.520;13.494;2023-03-09T07:54:51;8.82;;;7.93;;
9767;SDS011;4923;52.520;13.494;2023-03-09T07:57:38;11.18;;;8.60;;
9767;SDS011;4923;52.520;13.494;2023-03-09T08:00:26;11.88;;;7.30;;
9767;SDS011;4923;52.520;13.494;2023-03-09T08:03:14;10.02;;;7.93;;
9767;SDS011;4923;52.520;13.494;2023-03-09T08:06:02;8.75;;;7.47;;
9767;SDS011;4923;52.520;13.494;2023-03-09T08:08:50;8.93;;;7.20;;
9767;SDS011;4923;52.520;13.494;2023-03-09T08:11:38;10.20;;;8.00;;
9767;SDS011;4923;52.520;13.494;2023-03-09T08:14:25;10.68;;;8.35;;
9767;SDS011;4923;52.520;13.494;2023-03-09T08:17:12;8.02;;;7.22;;
9767;SDS011;4923;52.520;13.494;2023-03-09T08:20:00;9.68;;;7.95;;
9767;SDS011;4923;52.520;13.494;2023-03-09T08:22:50;14.13;;;7.40;;
9767;SDS011;4923;52.520;13.494;2023-03-09T08:25:37;12.50;;;7.75;;
9767;SDS011;4923;52.520;13.494;2023-03-09T08:28:24;11.93;;;7.72;;
9767;SDS011;4923;52.520;13.494;2023-03-09T08:31:12;9.70;;;8.00;;
9767;SDS011;4923;52.520;13.494;2023-03-09T08:34:02;9.95;;;8.52;;
9767;SDS011;4923;52.520;13.494;2023-03-09T08:36:51;12.10;;;8.13;;
9767;SDS011;4923;52.520;13.494;2023-03-09T08:39:38;12.23;;;9.52;;
9767;SDS011;4923;52.520;13.494;2023-03-09T08:42:24;9.43;;;8.43;;
9767;SDS011;4923;52.520;13.494;2023-03-09T08:45:12;9.35;;;8.25;;
9767;SDS011;4923;52.520;13.494;2023-03-09T08:47:59;10.77;;;8.00;;
9767;SDS011;4923;52.520;13.494;2023-03-09T08:50:45;11.55;;;9.27;;
9767;SDS011;4923;52.520;13.494;2023-03-09T08:53:34;12.63;;;9.75;;
9767;SDS011;4923;52.520;13.494;2023-03-09T08:56:21;16.42;;;10.18;;
9767;SDS011;4923;52.520;13.494;2023-03-09T08:59:08;19.48;;;10.50;;
9767;SDS011;4923;52.520;13.494;2023-03-09T09:01:55;13.38;;;7.97;;
9767;SDS011;4923;52.520;13.494;2023-03-09T09:04:43;11.25;;;8.93;;
9767;SDS011;4923;52.520;13.494;2023-03-09T09:07:30;15.30;;;8.93;;
9767;SDS011;4923;52.520;13.494;2023-03-09T09:10:19;12.25;;;9.70;;
9767;SDS011;4923;52.520;13.494;2023-03-09T09:13:06;12.68;;;9.52;;
9767;SDS011;4923;52.520;13.494;2023-03-09T09:15:53;13.57;;;9.95;;
9767;SDS011;4923;52.520;13.494;2023-03-09T09:18:40;12.10;;;9.13;;
9767;SDS011;4923;52.520;13.494;2023-03-09T09:21:27;14.93;;;10.55;;
9767;SDS011;4923;52.520;13.494;2023-03-09T09:24:14;15.30;;;10.35;;
9767;SDS011;4923;52.520;13.494;2023-03-09T09:27:02;10.70;;;9.30;;
9767;SDS011;4923;52.520;13.494;2023-03-09T09:29:49;14.55;;;8.60;;
9767;SDS011;4923;52.520;13.494;2023-03-09T09:32:38;13.75;;;10.35;;
9767;SDS011;4923;52.520;13.494;2023-03-09T09:35:25;10.65;;;9.43;;
9767;SDS011;4923;52.520;13.494;2023-03-09T09:38:12;13.77;;;10.02;;
9767;SDS011;4923;52.520;13.494;2023-03-09T09:40:59;12.30;;;9.43;;
9767;SDS011;4923;52.520;13.494;2023-03-09T09:43:52;13.35;;;9.82;;
9767;SDS011;4923;52.520;13.494;2023-03-09T09:46:42;11.02;;;9.57;;
9767;SDS011;4923;52.520;13.494;2023-03-09T09:49:30;13.68;;;8.90;;
9767;SDS011;4923;52.520;13.494;2023-03-09T09:52:38;12.32;;;9.15;;
9767;SDS011;4923;52.520;13.494;2023-03-09T09:55:33;27.05;;;9.45;;
9767;SDS011;4923;52.520;13.494;2023-03-09T09:58:25;12.10;;;9.30;;
9767;SDS011;4923;52.520;13.494;2023-03-09T10:01:21;10.55;;;8.93;;
9767;SDS011;4923;52.520;13.494;2023-03-09T10:04:14;11.82;;;9.55;;
9767;SDS011;4923;52.520;13.494;2023-03-09T10:07:09;13.10;;;8.32;;
9767;SDS011;4923;52.520;13.494;2023-03-09T10:10:02;13.00;;;9.23;;
9767;SDS011;4923;52.520;13.494;2023-03-09T10:12:51;9.73;;;8.65;;
9767;SDS011;4923;52.520;13.494;2023-03-09T10:15:38;13.48;;;10.32;;
9767;SDS011;4923;52.520;13.494;2023-03-09T10:18:29;13.07;;;9.20;;
9767;SDS011;4923;52.520;13.494;2023-03-09T10:21:19;15.40;;;9.90;;
9767;SDS011;4923;52.520;13.494;2023-03-09T10:24:17;13.15;;;8.70;;
9767;SDS011;4923;52.520;13.494;2023-03-09T10:27:10;14.95;;;9.25;;
9767;SDS011;4923;52.520;13.494;2023-03-09T10:30:05;13.60;;;9.57;;
9767;SDS011;4923;52.520;13.494;2023-03-09T10:32:59;10.27;;;8.60;;
9767;SDS011;4923;52.520;13.494;2023-03-09T10:35:54;10.57;;;9.00;;
9767;SDS011;4923;52.520;13.494;2023-03-09T10:38:46;12.40;;;9.25;;
9767;SDS011;4923;52.520;13.494;2023-03-09T10:41:35;12.55;;;9.15;;
9767;SDS011;4923;52.520;13.494;2023-03-09T10:44:22;16.10;;;9.75;;
9767;SDS011;4923;52.520;13.494;2023-03-09T10:47:10;13.85;;;9.40;;
9767;SDS011;4923;52.520;13.494;2023-03-09T10:50:06;12.95;;;9.57;;
9767;SDS011;4923;52.520;13.494;2023-03-09T10:52:57;12.48;;;8.63;;
9767;SDS011;4923;52.520;13.494;2023-03-09T10:56:12;10.00;;;8.43;;
9767;SDS011;4923;52.520;13.494;2023-03-09T11:02:03;13.88;;;9.10;;
9767;SDS011;4923;52.520;13.494;2023-03-09T11:05:18;9.05;;;8.02;;
9767;SDS011;4923;52.520;13.494;2023-03-09T11:08:09;12.20;;;8.73;;
9767;SDS011;4923;52.520;13.494;2023-03-09T11:11:13;12.43;;;8.65;;
9767;SDS011;4923;52.520;13.494;2023-03-09T11:14:14;11.85;;;9.40;;
9767;SDS011;4923;52.520;13.494;2023-03-09T11:17:20;11.25;;;9.45;;
9767;SDS011;4923;52.520;13.494;2023-03-09T11:20:24;13.73;;;9.43;;
9767;SDS011;4923;52.520;13.494;2023-03-09T11:23:17;11.30;;;9.38;;
9767;SDS011;4923;52.520;13.494;2023-03-09T11:26:13;13.77;;;8.07;;
9767;SDS011;4923;52.520;13.494;2023-03-09T11:29:06;12.20;;;9.25;;
9767;SDS011;4923;52.520;13.494;2023-03-09T11:32:00;15.52;;;9.75;;
9767;SDS011;4923;52.520;13.494;2023-03-09T11:34:48;9.48;;;8.30;;
9767;SDS011;4923;52.520;13.494;2023-03-09T11:37:36;11.60;;;9.75;;
9767;SDS011;4923;52.520;13.494;2023-03-09T11:40:29;16.75;;;9.00;;
9767;SDS011;4923;52.520;13.494;2023-03-09T11:43:19;13.43;;;9.98;;
9767;SDS011;4923;52.520;13.494;2023-03-09T11:46:11;12.82;;;9.52;;
9767;SDS011;4923;52.520;13.494;2023-03-09T11:49:04;15.88;;;11.07;;
9767;SDS011;4923;52.520;13.494;2023-03-09T11:51:54;13.48;;;9.77;;
9767;SDS011;4923;52.520;13.494;2023-03-09T11:54:44;10.80;;;9.15;;
9767;SDS011;4923;52.520;13.494;2023-03-09T11:57:35;11.40;;;9.38;;
9767;SDS011;4923;52.520;13.494;2023-03-09T12:00:24;14.15;;;9.85;;
9767;SDS011;4923;52.520;13.494;2023-03-09T12:03:14;14.27;;;10.25;;
9767;SDS011;4923;52.520;13.494;2023-03-09T12:06:02;14.50;;;10.68;;
9767;SDS011;4923;52.520;13.494;2023-03-09T12:09:15;13.35;;;10.55;;
9767;SDS011;4923;52.520;13.494;2023-03-09T12:12:15;14.88;;;10.43;;
9767;SDS011;4923;52.520;13.494;2023-03-09T12:15:13;19.42;;;10.57;;
9767;SDS011;4923;52.520;13.494;2023-03-09T12:18:04;15.55;;;11.00;;
9767;SDS011;4923;52.520;13.494;2023-03-09T12:20:53;15.15;;;10.88;;
9767;SDS011;4923;52.520;13.494;2023-03-09T12:23:46;15.68;;;11.38;;
9767;SDS011;4923;52.520;13.494;2023-03-09T12:26:35;12.27;;;10.45;;
9767;SDS011;4923;52.520;13.494;2023-03-09T12:29:22;14.27;;;10.98;;
9767;SDS011;4923;52.520;13.494;2023-03-09T12:32:19;14.48;;;9.88;;
9767;SDS011;4923;52.520;13.494;2023-03-09T12:38:40;13.65;;;10.52;;
9767;SDS011;4923;52.520;13.494;2023-03-09T12:41:27;15.32;;;11.00;;
9767;SDS011;4923;52.520;13.494;2023-03-09T12:44:57;15.40;;;11.50;;
9767;SDS011;4923;52.520;13.494;2023-03-09T12:47:49;15.70;;;11.00;;
9767;SDS011;4923;52.520;13.494;2023-03-09T12:50:39;14.25;;;11.10;;
9767;SDS011;4923;52.520;13.494;2023-03-09T12:53:37;15.88;;;10.98;;
9767;SDS011;4923;52.520;13.494;2023-03-09T12:56:43;17.48;;;11.35;;
9767;SDS011;4923;52.520;13.494;2023-03-09T12:59:30;19.55;;;11.43;;
9767;SDS011;4923;52.520;13.494;2023-03-09T13:02:22;13.55;;;10.43;;
9767;SDS011;4923;52.520;13.494;2023-03-09T13:05:11;14.80;;;10.65;;
9767;SDS011;4923;52.520;13.494;2023-03-09T13:08:17;15.20;;;11.43;;
9767;SDS011;4923;52.520;13.494;2023-03-09T13:11:28;13.40;;;10.63;;
9767;SDS011;4923;52.520;13.494;2023-03-09T13:17:39;12.27;;;10.15;;
9767;SDS011;4923;52.520;13.494;2023-03-09T13:20:33;13.15;;;10.35;;
9767;SDS011;4923;52.520;13.494;2023-03-09T13:23:22;14.20;;;10.85;;
9767;SDS011;4923;52.520;13.494;2023-03-09T13:26:10;14.25;;;10.38;;
9767;SDS011;4923;52.520;13.494;2023-03-09T13:28:59;14.70;;;10.80;;
9767;SDS011;4923;52.520;13.494;2023-03-09T13:31:46;16.27;;;11.05;;
9767;SDS011;4923;52.520;13.494;2023-03-09T13:34:35;19.77;;;11.35;;
9767;SDS011;4923;52.520;13.494;2023-03-09T13:37:24;13.23;;;10.70;;
9767;SDS011;4923;52.520;13.494;2023-03-09T13:40:23;15.23;;;10.48;;
9767;SDS011;4923;52.520;13.494;2023-03-09T13:43:14;18.30;;;12.20;;
9767;SDS011;4923;52.520;13.494;2023-03-09T13:46:04;15.10;;;11.27;;
9767;SDS011;4923;52.520;13.494;2023-03-09T13:48:54;15.18;;;11.55;;
9767;SDS011;4923;52.520;13.494;2023-03-09T13:51:48;17.10;;;11.50;;
9767;SDS011;4923;52.520;13.494;2023-03-09T13:54:40;17.10;;;11.35;;
9767;SDS011;4923;52.520;13.494;2023-03-09T13:57:35;17.40;;;12.15;;
9767;SDS011;4923;52.520;13.494;2023-03-09T14:00:23;15.50;;;11.75;;
9767;SDS011;4923;52.520;13.494;2023-03-09T14:03:11;18.13;;;10.73;;
9767;SDS011;4923;52.520;13.494;2023-03-09T14:05:59;15.77;;;11.07;;
9767;SDS011;4923;52.520;13.494;2023-03-09T14:08:50;18.95;;;13.07;;
9767;SDS011;4923;52.520;13.494;2023-03-09T14:11:38;17.50;;;11.48;;
9767;SDS011;4923;52.520;13.494;2023-03-09T14:14:26;16.80;;;12.50;;
9767;SDS011;4923;52.520;13.494;2023-03-09T14:17:14;18.02;;;11.57;;
9767;SDS011;4923;52.520;13.494;2023-03-09T14:20:04;13.93;;;10.90;;
9767;SDS011;4923;52.520;13.494;2023-03-09T14:22:51;16.20;;;11.48;;
9767;SDS011;4923;52.520;13.494;2023-03-09T14:25:40;16.40;;;12.55;;
9767;SDS011;4923;52.520;13.494;2023-03-09T14:28:29;17.25;;;11.98;;
9767;SDS011;4923;52.520;13.494;2023-03-09T14:31:19;17.65;;;11.95;;
9767;SDS011;4923;52.520;13.494;2023-03-09T14:34:22;19.85;;;13.20;;
9767;SDS011;4923;52.520;13.494;2023-03-09T14:37:19;16.55;;;11.38;;
9767;SDS011;4923;52.520;13.494;2023-03-09T14:40:14;16.88;;;11.80;;
9767;SDS011;4923;52.520;13.494;2023-03-09T14:43:20;17.83;;;11.20;;
9767;SDS011;4923;52.520;13.494;2023-03-09T14:46:18;15.98;;;10.77;;
9767;SDS011;4923;52.520;13.494;2023-03-09T14:49:08;18.13;;;12.95;;
9767;SDS011;4923;52.520;13.494;2023-03-09T14:51:55;19.50;;;12.18;;
9767;SDS011;4923;52.520;13.494;2023-03-09T14:54:43;17.35;;;11.07;;
9767;SDS011;4923;52.520;13.494;2023-03-09T14:57:30;19.50;;;11.95;;
9767;SDS011;4923;52.520;13.494;2023-03-09T15:00:19;20.27;;;13.02;;
9767;SDS011;4923;52.520;13.494;2023-03-09T15:03:07;18.45;;;12.55;;
9767;SDS011;4923;52.520;13.494;2023-03-09T15:05:54;17.70;;;12.30;;
9767;SDS011;4923;52.520;13.494;2023-03-09T15:08:41;19.55;;;12.10;;
9767;SDS011;4923;52.520;13.494;2023-03-09T15:11:28;18.35;;;11.95;;
9767;SDS011;4923;52.520;13.494;2023-03-09T15:14:16;17.75;;;12.30;;
9767;SDS011;4923;52.520;13.494;2023-03-09T15:17:12;25.90;;;13.38;;
9767;SDS011;4923;52.520;13.494;2023-03-09T15:20:00;22.38;;;13.15;;
9767;SDS011;4923;52.520;13.494;2023-03-09T15:22:48;16.83;;;11.25;;
9767;SDS011;4923;52.520;13.494;2023-03-09T15:25:35;20.20;;;12.77;;
9767;SDS011;4923;52.520;13.494;2023-03-09T15:28:22;21.55;;;13.40;;
9767;SDS011;4923;52.520;13.494;2023-03-09T15:31:09;16.95;;;12.07;;
9767;SDS011;4923;52.520;13.494;2023-03-09T15:33:59;20.70;;;12.77;;
9767;SDS011;4923;52.520;13.494;2023-03-09T15:36:46;21.25;;;12.05;;
9767;SDS011;4923;52.520;13.494;2023-03-09T15:39:33;22.55;;;11.15;;
9767;SDS011;4923;52.520;13.494;2023-03-09T15:42:21;25.27;;;12.50;;
9767;SDS011;4923;52.520;13.494;2023-03-09T15:45:08;18.35;;;12.02;;
9767;SDS011;4923;52.520;13.494;2023-03-09T15:47:56;16.58;;;11.70;;
9767;SDS011;4923;52.520;13.494;2023-03-09T15:50:49;18.38;;;11.88;;
9767;SDS011;4923;52.520;13.494;2023-03-09T15:53:36;22.60;;;12.63;;
9767;SDS011;4923;52.520;13.494;2023-03-09T15:56:23;18.45;;;12.88;;
9767;SDS011;4923;52.520;13.494;2023-03-09T15:59:10;21.33;;;14.07;;
9767;SDS011;4923;52.520;13.494;2023-03-09T16:01:57;20.63;;;12.45;;
9767;SDS011;4923;52.520;13.494;2023-03-09T16:04:44;21.50;;;13.15;;
9767;SDS011;4923;52.520;13.494;2023-03-09T16:07:35;19.95;;;13.35;;
9767;SDS011;4923;52.520;13.494;2023-03-09T16:10:22;21.38;;;13.00;;
9767;SDS011;4923;52.520;13.494;2023-03-09T16:13:09;20.40;;;14.23;;
9767;SDS011;4923;52.520;13.494;2023-03-09T16:15:58;21.50;;;13.00;;
9767;SDS011;4923;52.520;13.494;2023-03-09T16:18:45;21.02;;;13.52;;
9767;SDS011;4923;52.520;13.494;2023-03-09T16:21:32;19.65;;;13.43;;
9767;SDS011;4923;52.520;13.494;2023-03-09T16:24:20;21.17;;;12.70;;
9767;SDS011;4923;52.520;13.494;2023-03-09T16:27:07;22.85;;;13.18;;
9767;SDS011;4923;52.520;13.494;2023-03-09T16:29:55;21.45;;;12.70;;
9767;SDS011;4923;52.520;13.494;2023-03-09T16:32:41;16.17;;;11.60;;
9767;SDS011;4923;52.520;13.494;2023-03-09T16:35:28;19.98;;;12.43;;
9767;SDS011;4923;52.520;13.494;2023-03-09T16:38:15;25.88;;;13.57;;
9767;SDS011;4923;52.520;13.494;2023-03-09T16:41:06;18.20;;;13.63;;
9767;SDS011;4923;52.520;13.494;2023-03-09T16:43:53;25.25;;;14.20;;
9767;SDS011;4923;52.520;13.494;2023-03-09T16:46:40;28.83;;;13.25;;
9767;SDS011;4923;52.520;13.494;2023-03-09T16:49:27;19.88;;;12.52;;
9767;SDS011;4923;52.520;13.494;2023-03-09T16:52:14;22.00;;;12.45;;
9767;SDS011;4923;52.520;13.494;2023-03-09T16:55:02;24.42;;;12.80;;
9767;SDS011;4923;52.520;13.494;2023-03-09T16:57:52;25.30;;;14.18;;
9767;SDS011;4923;52.520;13.494;2023-03-09T17:00:39;20.58;;;13.38;;
9767;SDS011;4923;52.520;13.494;2023-03-09T17:03:27;21.95;;;13.05;;
9767;SDS011;4923;52.520;13.494;2023-03-09T17:06:15;23.80;;;13.48;;